sensor_id;sensor_type;location;lat;lon;timestamp;P1;durP1;ratioP1;P2;durP2;ratioP2
3991;SDS011;2010;48.194;16.394;2024-01-15T00:00:20;9.63;;;6.57;;
3991;SDS011;2010;48.194;16.394;2024-01-15T00:02:50;8.07;;;6.10;;
3991;SDS011;2010;48.194;16.394;2024-01-15T00:05:18;9.17;;;5.97;;
3991;SDS011;2010;48.194;16.394;2024-01-15T00:07:51;11.40;;;6.23;;
3991;SDS011;2010;48.194;16.394;2024-01-15T00:10:19;12.90;;;7.50;;
3991;SDS011;2010;48.194;16.394;2024-01-15T00:12:55;10.00;;;6.63;;
3991;SDS011;2010;48.194;16.394;2024-01-15T00:15:26;11.80;;;7.23;;
3991;SDS011;2010;48.194;16.394;2024-01-15T00:18:01;10.50;;;7.10;;
3991;SDS011;2010;48.194;16.394;2024-01-15T00:20:39;11.00;;;6.57;;
3991;SDS011;2010;48.194;16.394;2024-01-15T00:23:17;10.90;;;7.17;;
3991;SDS011;2010;48.194;16.394;2024-01-15T00:25:46;11.43;;;6.93;;
3991;SDS011;2010;48.194;16.394;2024-01-15T00:28:46;17.13;;;7.70;;
3991;SDS011;2010;48.194;16.394;2024-01-15T00:31:20;10.90;;;6.77;;
3991;SDS011;2010;48.194;16.394;2024-01-15T00:33:58;13.63;;;7.50;;
3991;SDS011;2010;48.194;16.394;2024-01-15T00:36:32;16.50;;;8.00;;
3991;SDS011;2010;48.194;16.394;2024-01-15T00:39:04;13.80;;;7.63;;
3991;SDS011;2010;48.194;16.394;2024-01-15T00:41:38;14.03;;;7.70;;
3991;SDS011;2010;48.194;16.394;2024-01-15T00:44:28;11.73;;;7.03;;
3991;SDS011;2010;48.194;16.394;2024-01-15T00:47:00;13.87;;;7.53;;
3991;SDS011;2010;48.194;16.394;2024-01-15T00:49:33;15.80;;;8.07;;
3991;SDS011;2010;48.194;16.394;2024-01-15T00:54:58;12.20;;;8.20;;
3991;SDS011;2010;48.194;16.394;2024-01-15T00:57:30;15.03;;;7.97;;
3991;SDS011;2010;48.194;16.394;2024-01-15T01:00:04;17.83;;;8.60;;
3991;SDS011;2010;48.194;16.394;2024-01-15T01:02:37;12.03;;;8.00;;
3991;SDS011;2010;48.194;16.394;2024-01-15T01:05:16;14.97;;;8.10;;
3991;SDS011;2010;48.194;16.394;2024-01-15T01:07:48;13.30;;;8.10;;
3991;SDS011;2010;48.194;16.394;2024-01-15T01:10:27;12.97;;;8.20;;
3991;SDS011;2010;48.194;16.394;2024-01-15T01:12:57;12.07;;;7.97;;
3991;SDS011;2010;48.194;16.394;2024-01-15T01:15:28;11.33;;;8.03;;
3991;SDS011;2010;48.194;16.394;2024-01-15T01:17:59;13.60;;;8.30;;
3991;SDS011;2010;48.194;16.394;2024-01-15T01:20:30;14.37;;;8.27;;
3991;SDS011;2010;48.194;16.394;2024-01-15T01:23:01;12.93;;;7.60;;
3991;SDS011;2010;48.194;16.394;2024-01-15T01:25:29;13.13;;;7.83;;
3991;SDS011;2010;48.194;16.394;2024-01-15T01:28:02;13.60;;;7.83;;
3991;SDS011;2010;48.194;16.394;2024-01-15T01:30:32;13.00;;;7.77;;
3991;SDS011;2010;48.194;16.394;2024-01-15T01:33:04;13.70;;;7.87;;
3991;SDS011;2010;48.194;16.394;2024-01-15T01:35:41;12.60;;;7.67;;
3991;SDS011;2010;48.194;16.394;2024-01-15T01:38:16;16.30;;;7.97;;
3991;SDS011;2010;48.194;16.394;2024-01-15T01:40:46;15.03;;;7.73;;
3991;SDS011;2010;48.194;16.394;2024-01-15T01:43:18;12.53;;;6.93;;
3991;SDS011;2010;48.194;16.394;2024-01-15T01:45:50;13.60;;;7.43;;
3991;SDS011;2010;48.194;16.394;2024-01-15T01:48:23;12.80;;;7.57;;
3991;SDS011;2010;48.194;16.394;2024-01-15T01:51:02;11.43;;;7.33;;
3991;SDS011;2010;48.194;16.394;2024-01-15T01:53:36;13.00;;;7.83;;
3991;SDS011;2010;48.194;16.394;2024-01-15T01:56:13;12.10;;;7.30;;
3991;SDS011;2010;48.194;16.394;2024-01-15T01:58:45;12.90;;;7.87;;
3991;SDS011;2010;48.194;16.394;2024-01-15T02:01:17;17.70;;;8.77;;
3991;SDS011;2010;48.194;16.394;2024-01-15T02:03:51;13.40;;;7.70;;
3991;SDS011;2010;48.194;16.394;2024-01-15T02:06:28;11.60;;;7.07;;
3991;SDS011;2010;48.194;16.394;2024-01-15T02:09:01;12.57;;;7.67;;
3991;SDS011;2010;48.194;16.394;2024-01-15T02:11:31;11.33;;;7.23;;
3991;SDS011;2010;48.194;16.394;2024-01-15T02:14:03;14.17;;;8.17;;
3991;SDS011;2010;48.194;16.394;2024-01-15T02:16:41;14.83;;;8.43;;
3991;SDS011;2010;48.194;16.394;2024-01-15T02:19:14;16.47;;;8.40;;
3991;SDS011;2010;48.194;16.394;2024-01-15T02:21:47;14.00;;;8.03;;
3991;SDS011;2010;48.194;16.394;2024-01-15T02:24:23;12.47;;;7.30;;
3991;SDS011;2010;48.194;16.394;2024-01-15T02:26:51;13.53;;;8.47;;
3991;SDS011;2010;48.194;16.394;2024-01-15T02:29:21;13.03;;;7.10;;
3991;SDS011;2010;48.194;16.394;2024-01-15T02:31:49;16.13;;;9.17;;
3991;SDS011;2010;48.194;16.394;2024-01-15T02:34:20;15.47;;;9.20;;
3991;SDS011;2010;48.194;16.394;2024-01-15T02:36:51;15.37;;;8.23;;
3991;SDS011;2010;48.194;16.394;2024-01-15T02:39:29;16.43;;;9.17;;
3991;SDS011;2010;48.194;16.394;2024-01-15T02:42:00;13.90;;;8.57;;
3991;SDS011;2010;48.194;16.394;2024-01-15T02:44:30;16.30;;;9.00;;
3991;SDS011;2010;48.194;16.394;2024-01-15T02:46:59;15.30;;;8.53;;
3991;SDS011;2010;48.194;16.394;2024-01-15T02:49:33;13.63;;;8.20;;
3991;SDS011;2010;48.194;16.394;2024-01-15T02:52:04;15.10;;;8.07;;
3991;SDS011;2010;48.194;16.394;2024-01-15T02:54:40;14.80;;;9.17;;
3991;SDS011;2010;48.194;16.394;2024-01-15T02:57:10;14.53;;;9.00;;
3991;SDS011;2010;48.194;16.394;2024-01-15T02:59:39;17.70;;;9.00;;
3991;SDS011;2010;48.194;16.394;2024-01-15T03:02:11;19.33;;;9.10;;
3991;SDS011;2010;48.194;16.394;2024-01-15T03:04:42;12.97;;;7.90;;
3991;SDS011;2010;48.194;16.394;2024-01-15T03:07:12;13.50;;;8.90;;
3991;SDS011;2010;48.194;16.394;2024-01-15T03:09:49;15.23;;;9.23;;
3991;SDS011;2010;48.194;16.394;2024-01-15T03:12:25;15.87;;;9.07;;
3991;SDS011;2010;48.194;16.394;2024-01-15T03:15:03;16.43;;;8.87;;
3991;SDS011;2010;48.194;16.394;2024-01-15T03:17:34;19.70;;;9.70;;
3991;SDS011;2010;48.194;16.394;2024-01-15T03:20:06;16.37;;;9.60;;
3991;SDS011;2010;48.194;16.394;2024-01-15T03:22:35;15.57;;;9.17;;
3991;SDS011;2010;48.194;16.394;2024-01-15T03:25:08;17.80;;;10.17;;
3991;SDS011;2010;48.194;16.394;2024-01-15T03:27:38;18.53;;;10.30;;
3991;SDS011;2010;48.194;16.394;2024-01-15T03:30:07;17.20;;;9.13;;
3991;SDS011;2010;48.194;16.394;2024-01-15T03:32:40;20.33;;;10.20;;
3991;SDS011;2010;48.194;16.394;2024-01-15T03:35:11;16.63;;;10.10;;
3991;SDS011;2010;48.194;16.394;2024-01-15T03:37:46;20.23;;;10.20;;
3991;SDS011;2010;48.194;16.394;2024-01-15T03:40:18;13.97;;;9.60;;
3991;SDS011;2010;48.194;16.394;2024-01-15T03:42:50;17.97;;;11.20;;
3991;SDS011;2010;48.194;16.394;2024-01-15T03:45:23;19.70;;;10.63;;
3991;SDS011;2010;48.194;16.394;2024-01-15T03:47:53;21.30;;;11.67;;
3991;SDS011;2010;48.194;16.394;2024-01-15T03:50:28;19.60;;;11.73;;
3991;SDS011;2010;48.194;16.394;2024-01-15T03:52:59;22.20;;;11.17;;
3991;SDS011;2010;48.194;16.394;2024-01-15T03:55:41;21.00;;;11.50;;
3991;SDS011;2010;48.194;16.394;2024-01-15T03:58:15;20.63;;;10.77;;
3991;SDS011;2010;48.194;16.394;2024-01-15T04:00:47;25.73;;;13.63;;
3991;SDS011;2010;48.194;16.394;2024-01-15T04:03:26;21.03;;;11.80;;
3991;SDS011;2010;48.194;16.394;2024-01-15T04:05:57;22.00;;;12.87;;
3991;SDS011;2010;48.194;16.394;2024-01-15T04:08:33;25.00;;;13.20;;
3991;SDS011;2010;48.194;16.394;2024-01-15T04:11:05;24.43;;;13.07;;
3991;SDS011;2010;48.194;16.394;2024-01-15T04:13:41;22.10;;;12.53;;
3991;SDS011;2010;48.194;16.394;2024-01-15T04:16:09;19.23;;;12.00;;
3991;SDS011;2010;48.194;16.394;2024-01-15T04:18:49;23.37;;;11.80;;
3991;SDS011;2010;48.194;16.394;2024-01-15T04:21:18;19.90;;;11.30;;
3991;SDS011;2010;48.194;16.394;2024-01-15T04:23:47;23.13;;;11.20;;
3991;SDS011;2010;48.194;16.394;2024-01-15T04:26:28;17.47;;;11.53;;
3991;SDS011;2010;48.194;16.394;2024-01-15T04:29:03;16.27;;;10.10;;
3991;SDS011;2010;48.194;16.394;2024-01-15T04:31:41;18.00;;;9.90;;
3991;SDS011;2010;48.194;16.394;2024-01-15T04:34:22;17.03;;;9.87;;
3991;SDS011;2010;48.194;16.394;2024-01-15T04:36:57;16.33;;;10.60;;
3991;SDS011;2010;48.194;16.394;2024-01-15T04:39:29;18.83;;;10.43;;
3991;SDS011;2010;48.194;16.394;2024-01-15T04:42:15;13.80;;;8.80;;
3991;SDS011;2010;48.194;16.394;2024-01-15T04:44:53;21.53;;;12.10;;
3991;SDS011;2010;48.194;16.394;2024-01-15T04:47:23;18.10;;;11.13;;
3991;SDS011;2010;48.194;16.394;2024-01-15T04:50:05;23.13;;;11.73;;
3991;SDS011;2010;48.194;16.394;2024-01-15T04:52:40;19.00;;;12.00;;
3991;SDS011;2010;48.194;16.394;2024-01-15T04:55:10;22.60;;;12.17;;
3991;SDS011;2010;48.194;16.394;2024-01-15T04:57:42;18.30;;;11.03;;
3991;SDS011;2010;48.194;16.394;2024-01-15T05:00:12;21.60;;;12.60;;
3991;SDS011;2010;48.194;16.394;2024-01-15T05:02:41;23.13;;;12.73;;
3991;SDS011;2010;48.194;16.394;2024-01-15T05:05:16;22.13;;;11.13;;
3991;SDS011;2010;48.194;16.394;2024-01-15T05:07:55;19.63;;;11.80;;
3991;SDS011;2010;48.194;16.394;2024-01-15T05:10:25;20.10;;;12.60;;
3991;SDS011;2010;48.194;16.394;2024-01-15T05:13:04;23.83;;;11.33;;
3991;SDS011;2010;48.194;16.394;2024-01-15T05:15:40;18.93;;;11.33;;
3991;SDS011;2010;48.194;16.394;2024-01-15T05:18:21;19.37;;;11.60;;
3991;SDS011;2010;48.194;16.394;2024-01-15T05:20:55;19.50;;;11.70;;
3991;SDS011;2010;48.194;16.394;2024-01-15T05:23:40;21.60;;;12.17;;
3991;SDS011;2010;48.194;16.394;2024-01-15T05:26:12;22.40;;;11.93;;
3991;SDS011;2010;48.194;16.394;2024-01-15T05:28:57;21.27;;;12.27;;
3991;SDS011;2010;48.194;16.394;2024-01-15T05:31:26;21.13;;;11.07;;
3991;SDS011;2010;48.194;16.394;2024-01-15T05:34:05;21.50;;;11.80;;
3991;SDS011;2010;48.194;16.394;2024-01-15T05:36:39;21.47;;;11.27;;
3991;SDS011;2010;48.194;16.394;2024-01-15T05:39:11;24.83;;;13.07;;
3991;SDS011;2010;48.194;16.394;2024-01-15T05:41:42;20.33;;;11.90;;
3991;SDS011;2010;48.194;16.394;2024-01-15T05:44:26;18.73;;;10.50;;
3991;SDS011;2010;48.194;16.394;2024-01-15T05:46:57;21.00;;;11.53;;
3991;SDS011;2010;48.194;16.394;2024-01-15T05:49:27;21.20;;;11.50;;
3991;SDS011;2010;48.194;16.394;2024-01-15T05:52:01;19.57;;;11.57;;
3991;SDS011;2010;48.194;16.394;2024-01-15T05:54:35;22.53;;;11.60;;
3991;SDS011;2010;48.194;16.394;2024-01-15T05:57:25;21.77;;;11.20;;
3991;SDS011;2010;48.194;16.394;2024-01-15T06:00:04;19.80;;;10.13;;
3991;SDS011;2010;48.194;16.394;2024-01-15T06:02:40;16.20;;;9.40;;
3991;SDS011;2010;48.194;16.394;2024-01-15T06:05:11;17.07;;;9.40;;
3991;SDS011;2010;48.194;16.394;2024-01-15T06:07:50;18.00;;;9.27;;
3991;SDS011;2010;48.194;16.394;2024-01-15T06:10:29;14.60;;;9.63;;
3991;SDS011;2010;48.194;16.394;2024-01-15T06:12:58;12.43;;;7.70;;
3991;SDS011;2010;48.194;16.394;2024-01-15T06:15:35;14.10;;;8.00;;
3991;SDS011;2010;48.194;16.394;2024-01-15T06:18:12;14.07;;;8.83;;
3991;SDS011;2010;48.194;16.394;2024-01-15T06:20:44;18.13;;;9.53;;
3991;SDS011;2010;48.194;16.394;2024-01-15T06:23:29;16.63;;;9.57;;
3991;SDS011;2010;48.194;16.394;2024-01-15T06:26:06;17.80;;;8.50;;
3991;SDS011;2010;48.194;16.394;2024-01-15T06:28:42;13.00;;;8.53;;
3991;SDS011;2010;48.194;16.394;2024-01-15T06:31:22;20.20;;;10.37;;
3991;SDS011;2010;48.194;16.394;2024-01-15T06:33:53;17.10;;;10.67;;
3991;SDS011;2010;48.194;16.394;2024-01-15T06:36:26;16.17;;;10.40;;
3991;SDS011;2010;48.194;16.394;2024-01-15T06:38:57;20.80;;;11.93;;
3991;SDS011;2010;48.194;16.394;2024-01-15T06:41:41;18.50;;;10.20;;
3991;SDS011;2010;48.194;16.394;2024-01-15T06:44:14;17.00;;;10.00;;
3991;SDS011;2010;48.194;16.394;2024-01-15T06:46:54;18.30;;;9.87;;
3991;SDS011;2010;48.194;16.394;2024-01-15T06:49:28;18.70;;;10.27;;
3991;SDS011;2010;48.194;16.394;2024-01-15T06:51:58;16.60;;;10.47;;
3991;SDS011;2010;48.194;16.394;2024-01-15T06:54:28;20.17;;;11.13;;
3991;SDS011;2010;48.194;16.394;2024-01-15T06:56:59;17.10;;;10.13;;
3991;SDS011;2010;48.194;16.394;2024-01-15T06:59:31;18.47;;;9.93;;
3991;SDS011;2010;48.194;16.394;2024-01-15T07:02:18;16.67;;;9.43;;
3991;SDS011;2010;48.194;16.394;2024-01-15T07:04:50;15.47;;;9.60;;
3991;SDS011;2010;48.194;16.394;2024-01-15T07:07:19;17.53;;;11.00;;
3991;SDS011;2010;48.194;16.394;2024-01-15T07:12:36;15.60;;;9.20;;
3991;SDS011;2010;48.194;16.394;2024-01-15T07:15:07;18.57;;;10.30;;
3991;SDS011;2010;48.194;16.394;2024-01-15T07:17:37;21.10;;;10.30;;
3991;SDS011;2010;48.194;16.394;2024-01-15T07:20:17;17.87;;;10.53;;
3991;SDS011;2010;48.194;16.394;2024-01-15T07:22:47;13.10;;;8.20;;
3991;SDS011;2010;48.194;16.394;2024-01-15T07:25:16;15.30;;;10.30;;
3991;SDS011;2010;48.194;16.394;2024-01-15T07:27:44;21.67;;;10.97;;
3991;SDS011;2010;48.194;16.394;2024-01-15T07:30:13;18.83;;;10.80;;
3991;SDS011;2010;48.194;16.394;2024-01-15T07:32:46;19.43;;;10.33;;
3991;SDS011;2010;48.194;16.394;2024-01-15T07:35:25;19.43;;;10.90;;
3991;SDS011;2010;48.194;16.394;2024-01-15T07:38:02;18.10;;;9.40;;
3991;SDS011;2010;48.194;16.394;2024-01-15T07:40:36;20.43;;;10.33;;
3991;SDS011;2010;48.194;16.394;2024-01-15T07:43:05;24.83;;;11.07;;
3991;SDS011;2010;48.194;16.394;2024-01-15T07:45:37;24.30;;;11.70;;
3991;SDS011;2010;48.194;16.394;2024-01-15T07:48:13;18.80;;;10.03;;
3991;SDS011;2010;48.194;16.394;2024-01-15T07:50:46;17.23;;;9.40;;
3991;SDS011;2010;48.194;16.394;2024-01-15T07:53:16;20.50;;;12.50;;
3991;SDS011;2010;48.194;16.394;2024-01-15T07:55:47;18.33;;;11.23;;
3991;SDS011;2010;48.194;16.394;2024-01-15T07:58:22;17.17;;;11.10;;
3991;SDS011;2010;48.194;16.394;2024-01-15T08:00:59;32.43;;;16.60;;
3991;SDS011;2010;48.194;16.394;2024-01-15T08:03:36;31.33;;;13.43;;
3991;SDS011;2010;48.194;16.394;2024-01-15T08:06:07;39.13;;;22.10;;
3991;SDS011;2010;48.194;16.394;2024-01-15T08:08:49;29.40;;;15.30;;
3991;SDS011;2010;48.194;16.394;2024-01-15T08:11:18;16.77;;;9.80;;
3991;SDS011;2010;48.194;16.394;2024-01-15T08:13:57;22.90;;;10.97;;
3991;SDS011;2010;48.194;16.394;2024-01-15T08:16:28;30.20;;;11.90;;
3991;SDS011;2010;48.194;16.394;2024-01-15T08:19:03;24.00;;;10.53;;
3991;SDS011;2010;48.194;16.394;2024-01-15T08:21:32;19.20;;;10.63;;
3991;SDS011;2010;48.194;16.394;2024-01-15T08:24:04;13.97;;;8.63;;
3991;SDS011;2010;48.194;16.394;2024-01-15T08:26:34;16.27;;;9.50;;
3991;SDS011;2010;48.194;16.394;2024-01-15T08:29:19;14.37;;;8.77;;
3991;SDS011;2010;48.194;16.394;2024-01-15T08:31:55;14.97;;;9.17;;
3991;SDS011;2010;48.194;16.394;2024-01-15T08:34:28;14.43;;;8.30;;
3991;SDS011;2010;48.194;16.394;2024-01-15T08:36:58;13.30;;;8.10;;
3991;SDS011;2010;48.194;16.394;2024-01-15T08:39:30;11.23;;;8.47;;
3991;SDS011;2010;48.194;16.394;2024-01-15T08:41:58;20.90;;;9.00;;
3991;SDS011;2010;48.194;16.394;2024-01-15T08:44:30;13.33;;;8.20;;
3991;SDS011;2010;48.194;16.394;2024-01-15T08:46:59;12.10;;;7.60;;
3991;SDS011;2010;48.194;16.394;2024-01-15T08:49:42;18.63;;;9.03;;
3991;SDS011;2010;48.194;16.394;2024-01-15T08:52:13;13.80;;;7.70;;
3991;SDS011;2010;48.194;16.394;2024-01-15T08:54:51;15.00;;;8.07;;
3991;SDS011;2010;48.194;16.394;2024-01-15T08:57:26;10.37;;;7.20;;
3991;SDS011;2010;48.194;16.394;2024-01-15T08:59:54;14.77;;;8.10;;
3991;SDS011;2010;48.194;16.394;2024-01-15T09:02:30;12.50;;;7.87;;
3991;SDS011;2010;48.194;16.394;2024-01-15T09:05:02;12.77;;;7.63;;
3991;SDS011;2010;48.194;16.394;2024-01-15T09:07:32;12.67;;;7.60;;
3991;SDS011;2010;48.194;16.394;2024-01-15T09:10:04;10.77;;;7.20;;
3991;SDS011;2010;48.194;16.394;2024-01-15T09:12:35;8.97;;;6.20;;
3991;SDS011;2010;48.194;16.394;2024-01-15T09:15:09;8.77;;;6.30;;
3991;SDS011;2010;48.194;16.394;2024-01-15T09:17:42;12.50;;;6.63;;
3991;SDS011;2010;48.194;16.394;2024-01-15T09:20:12;13.43;;;6.97;;
3991;SDS011;2010;48.194;16.394;2024-01-15T09:22:45;8.77;;;6.00;;
3991;SDS011;2010;48.194;16.394;2024-01-15T09:25:14;13.87;;;6.73;;
3991;SDS011;2010;48.194;16.394;2024-01-15T09:27:43;12.07;;;7.00;;
3991;SDS011;2010;48.194;16.394;2024-01-15T09:30:15;13.70;;;8.63;;
3991;SDS011;2010;48.194;16.394;2024-01-15T09:32:43;11.30;;;7.97;;
3991;SDS011;2010;48.194;16.394;2024-01-15T09:35:18;12.60;;;8.03;;
3991;SDS011;2010;48.194;16.394;2024-01-15T09:37:52;12.73;;;6.90;;
3991;SDS011;2010;48.194;16.394;2024-01-15T09:40:24;11.90;;;7.20;;
3991;SDS011;2010;48.194;16.394;2024-01-15T09:43:02;10.60;;;6.73;;
3991;SDS011;2010;48.194;16.394;2024-01-15T09:45:33;13.60;;;6.77;;
3991;SDS011;2010;48.194;16.394;2024-01-15T09:48:08;10.57;;;6.13;;
3991;SDS011;2010;48.194;16.394;2024-01-15T09:50:43;11.00;;;6.30;;
3991;SDS011;2010;48.194;16.394;2024-01-15T09:53:13;11.63;;;7.33;;
3991;SDS011;2010;48.194;16.394;2024-01-15T09:55:44;12.03;;;6.60;;
3991;SDS011;2010;48.194;16.394;2024-01-15T09:58:18;16.73;;;7.67;;
3991;SDS011;2010;48.194;16.394;2024-01-15T10:00:49;12.47;;;8.43;;
3991;SDS011;2010;48.194;16.394;2024-01-15T10:03:20;16.00;;;10.07;;
3991;SDS011;2010;48.194;16.394;2024-01-15T10:05:53;21.60;;;14.13;;
3991;SDS011;2010;48.194;16.394;2024-01-15T10:08:30;9.13;;;6.93;;
3991;SDS011;2010;48.194;16.394;2024-01-15T10:11:01;9.90;;;6.03;;
3991;SDS011;2010;48.194;16.394;2024-01-15T10:13:43;7.60;;;5.83;;
3991;SDS011;2010;48.194;16.394;2024-01-15T10:16:25;10.17;;;7.00;;
3991;SDS011;2010;48.194;16.394;2024-01-15T10:18:53;10.63;;;7.10;;
3991;SDS011;2010;48.194;16.394;2024-01-15T10:21:28;12.83;;;7.30;;
3991;SDS011;2010;48.194;16.394;2024-01-15T10:24:25;10.57;;;6.87;;
3991;SDS011;2010;48.194;16.394;2024-01-15T10:27:04;12.93;;;7.67;;
3991;SDS011;2010;48.194;16.394;2024-01-15T10:29:41;8.40;;;6.50;;
3991;SDS011;2010;48.194;16.394;2024-01-15T10:32:20;9.00;;;5.80;;
3991;SDS011;2010;48.194;16.394;2024-01-15T10:34:58;7.07;;;5.27;;
3991;SDS011;2010;48.194;16.394;2024-01-15T10:37:33;7.30;;;4.87;;
3991;SDS011;2010;48.194;16.394;2024-01-15T10:40:02;8.13;;;5.40;;
3991;SDS011;2010;48.194;16.394;2024-01-15T10:42:36;7.10;;;4.70;;
3991;SDS011;2010;48.194;16.394;2024-01-15T10:45:06;9.33;;;4.60;;
3991;SDS011;2010;48.194;16.394;2024-01-15T10:47:36;5.70;;;5.10;;
3991;SDS011;2010;48.194;16.394;2024-01-15T10:50:05;5.07;;;4.40;;
3991;SDS011;2010;48.194;16.394;2024-01-15T10:52:57;7.70;;;4.47;;
3991;SDS011;2010;48.194;16.394;2024-01-15T10:55:38;7.13;;;5.10;;
3991;SDS011;2010;48.194;16.394;2024-01-15T10:58:18;9.23;;;5.20;;
3991;SDS011;2010;48.194;16.394;2024-01-15T11:00:54;6.73;;;4.70;;
3991;SDS011;2010;48.194;16.394;2024-01-15T11:03:32;8.70;;;5.63;;
3991;SDS011;2010;48.194;16.394;2024-01-15T11:06:15;9.07;;;5.90;;
3991;SDS011;2010;48.194;16.394;2024-01-15T11:08:47;8.50;;;5.00;;
3991;SDS011;2010;48.194;16.394;2024-01-15T11:11:18;9.10;;;6.17;;
3991;SDS011;2010;48.194;16.394;2024-01-15T11:13:56;12.47;;;6.70;;
3991;SDS011;2010;48.194;16.394;2024-01-15T11:19:35;7.57;;;5.27;;
3991;SDS011;2010;48.194;16.394;2024-01-15T11:25:28;6.97;;;4.53;;
3991;SDS011;2010;48.194;16.394;2024-01-15T11:28:13;6.67;;;5.33;;
3991;SDS011;2010;48.194;16.394;2024-01-15T11:31:17;7.80;;;4.53;;
3991;SDS011;2010;48.194;16.394;2024-01-15T11:33:57;7.93;;;4.33;;
3991;SDS011;2010;48.194;16.394;2024-01-15T11:39:47;5.93;;;3.80;;
3991;SDS011;2010;48.194;16.394;2024-01-15T11:42:23;7.73;;;4.80;;
3991;SDS011;2010;48.194;16.394;2024-01-15T11:44:55;8.07;;;4.53;;
3991;SDS011;2010;48.194;16.394;2024-01-15T11:51:11;4.40;;;3.93;;
3991;SDS011;2010;48.194;16.394;2024-01-15T11:53:43;8.10;;;4.27;;
3991;SDS011;2010;48.194;16.394;2024-01-15T11:56:14;12.17;;;4.00;;
3991;SDS011;2010;48.194;16.394;2024-01-15T11:58:54;8.93;;;4.60;;
3991;SDS011;2010;48.194;16.394;2024-01-15T12:01:34;7.93;;;4.30;;
3991;SDS011;2010;48.194;16.394;2024-01-15T12:04:07;5.93;;;4.10;;
3991;SDS011;2010;48.194;16.394;2024-01-15T12:06:44;7.70;;;4.73;;
3991;SDS011;2010;48.194;16.394;2024-01-15T12:09:19;7.20;;;4.43;;
3991;SDS011;2010;48.194;16.394;2024-01-15T12:11:51;7.13;;;4.70;;
3991;SDS011;2010;48.194;16.394;2024-01-15T12:14:29;7.07;;;4.43;;
3991;SDS011;2010;48.194;16.394;2024-01-15T12:16:58;6.07;;;4.97;;
3991;SDS011;2010;48.194;16.394;2024-01-15T12:19:33;7.10;;;5.30;;
3991;SDS011;2010;48.194;16.394;2024-01-15T12:22:03;22.33;;;7.80;;
3991;SDS011;2010;48.194;16.394;2024-01-15T12:24:34;9.80;;;6.50;;
3991;SDS011;2010;48.194;16.394;2024-01-15T12:27:08;7.60;;;6.00;;
3991;SDS011;2010;48.194;16.394;2024-01-15T12:29:57;7.70;;;5.87;;
3991;SDS011;2010;48.194;16.394;2024-01-15T12:32:27;6.53;;;5.07;;
3991;SDS011;2010;48.194;16.394;2024-01-15T12:34:55;15.93;;;8.53;;
3991;SDS011;2010;48.194;16.394;2024-01-15T12:37:48;8.07;;;6.47;;
3991;SDS011;2010;48.194;16.394;2024-01-15T12:40:19;10.07;;;5.50;;
3991;SDS011;2010;48.194;16.394;2024-01-15T12:42:51;6.80;;;5.60;;
3991;SDS011;2010;48.194;16.394;2024-01-15T12:45:24;12.37;;;8.70;;
3991;SDS011;2010;48.194;16.394;2024-01-15T12:47:57;11.67;;;6.63;;
3991;SDS011;2010;48.194;16.394;2024-01-15T12:50:27;8.97;;;6.27;;
3991;SDS011;2010;48.194;16.394;2024-01-15T12:52:57;7.70;;;4.67;;
3991;SDS011;2010;48.194;16.394;2024-01-15T12:55:27;8.57;;;6.00;;
3991;SDS011;2010;48.194;16.394;2024-01-15T12:57:58;5.90;;;4.47;;
3991;SDS011;2010;48.194;16.394;2024-01-15T13:00:31;7.60;;;6.00;;
3991;SDS011;2010;48.194;16.394;2024-01-15T13:03:13;6.70;;;4.23;;
3991;SDS011;2010;48.194;16.394;2024-01-15T13:05:42;5.73;;;4.00;;
3991;SDS011;2010;48.194;16.394;2024-01-15T13:08:14;4.27;;;3.87;;
3991;SDS011;2010;48.194;16.394;2024-01-15T13:10:48;5.83;;;4.97;;
3991;SDS011;2010;48.194;16.394;2024-01-15T13:13:19;6.87;;;4.80;;
3991;SDS011;2010;48.194;16.394;2024-01-15T13:15:54;8.30;;;5.37;;
3991;SDS011;2010;48.194;16.394;2024-01-15T13:18:23;7.07;;;5.17;;
3991;SDS011;2010;48.194;16.394;2024-01-15T13:21:03;6.93;;;4.20;;
3991;SDS011;2010;48.194;16.394;2024-01-15T13:23:36;9.53;;;6.37;;
3991;SDS011;2010;48.194;16.394;2024-01-15T13:26:10;5.40;;;4.63;;
3991;SDS011;2010;48.194;16.394;2024-01-15T13:28:43;12.47;;;7.00;;
3991;SDS011;2010;48.194;16.394;2024-01-15T13:31:18;5.20;;;4.23;;
3991;SDS011;2010;48.194;16.394;2024-01-15T13:33:55;4.67;;;4.20;;
3991;SDS011;2010;48.194;16.394;2024-01-15T13:36:25;5.00;;;3.87;;
3991;SDS011;2010;48.194;16.394;2024-01-15T13:38:56;9.03;;;4.10;;
3991;SDS011;2010;48.194;16.394;2024-01-15T13:41:30;5.07;;;3.63;;
3991;SDS011;2010;48.194;16.394;2024-01-15T13:44:02;5.03;;;3.70;;
3991;SDS011;2010;48.194;16.394;2024-01-15T13:46:34;5.93;;;4.27;;
3991;SDS011;2010;48.194;16.394;2024-01-15T13:49:11;5.33;;;3.80;;
3991;SDS011;2010;48.194;16.394;2024-01-15T13:51:40;5.10;;;3.70;;
3991;SDS011;2010;48.194;16.394;2024-01-15T13:54:11;4.90;;;3.50;;
3991;SDS011;2010;48.194;16.394;2024-01-15T13:56:42;5.80;;;3.53;;
3991;SDS011;2010;48.194;16.394;2024-01-15T13:59:13;4.13;;;2.60;;
3991;SDS011;2010;48.194;16.394;2024-01-15T14:01:48;5.80;;;4.10;;
3991;SDS011;2010;48.194;16.394;2024-01-15T14:04:19;9.10;;;5.60;;
3991;SDS011;2010;48.194;16.394;2024-01-15T14:06:49;5.90;;;3.60;;
3991;SDS011;2010;48.194;16.394;2024-01-15T14:09:21;7.03;;;4.37;;
3991;SDS011;2010;48.194;16.394;2024-01-15T14:11:54;3.50;;;2.87;;
3991;SDS011;2010;48.194;16.394;2024-01-15T14:14:24;3.43;;;3.13;;
3991;SDS011;2010;48.194;16.394;2024-01-15T14:17:01;5.23;;;4.13;;
3991;SDS011;2010;48.194;16.394;2024-01-15T14:19:33;7.77;;;3.60;;
3991;SDS011;2010;48.194;16.394;2024-01-15T14:22:03;3.47;;;2.60;;
3991;SDS011;2010;48.194;16.394;2024-01-15T14:24:40;6.47;;;3.70;;
3991;SDS011;2010;48.194;16.394;2024-01-15T14:27:11;4.67;;;3.07;;
3991;SDS011;2010;48.194;16.394;2024-01-15T14:29:44;3.47;;;2.63;;
3991;SDS011;2010;48.194;16.394;2024-01-15T14:32:17;4.30;;;3.50;;
3991;SDS011;2010;48.194;16.394;2024-01-15T14:34:48;5.13;;;3.00;;
3991;SDS011;2010;48.194;16.394;2024-01-15T14:37:23;3.13;;;2.70;;
3991;SDS011;2010;48.194;16.394;2024-01-15T14:39:51;3.63;;;2.77;;
3991;SDS011;2010;48.194;16.394;2024-01-15T14:42:22;7.03;;;2.87;;
3991;SDS011;2010;48.194;16.394;2024-01-15T14:45:03;3.93;;;2.97;;
3991;SDS011;2010;48.194;16.394;2024-01-15T14:47:43;3.70;;;3.40;;
3991;SDS011;2010;48.194;16.394;2024-01-15T14:50:15;5.20;;;3.77;;
3991;SDS011;2010;48.194;16.394;2024-01-15T14:52:52;4.80;;;2.87;;
3991;SDS011;2010;48.194;16.394;2024-01-15T14:55:24;3.90;;;3.60;;
3991;SDS011;2010;48.194;16.394;2024-01-15T14:58:04;4.23;;;3.33;;
3991;SDS011;2010;48.194;16.394;2024-01-15T15:00:40;3.23;;;2.50;;
3991;SDS011;2010;48.194;16.394;2024-01-15T15:03:29;3.70;;;2.77;;
3991;SDS011;2010;48.194;16.394;2024-01-15T15:06:00;4.33;;;3.00;;
3991;SDS011;2010;48.194;16.394;2024-01-15T15:08:36;5.57;;;3.60;;
3991;SDS011;2010;48.194;16.394;2024-01-15T15:11:10;4.60;;;4.20;;
3991;SDS011;2010;48.194;16.394;2024-01-15T15:13:56;5.10;;;3.43;;
3991;SDS011;2010;48.194;16.394;2024-01-15T15:16:30;3.90;;;3.50;;
3991;SDS011;2010;48.194;16.394;2024-01-15T15:19:04;7.27;;;3.83;;
3991;SDS011;2010;48.194;16.394;2024-01-15T15:21:33;6.23;;;3.87;;
3991;SDS011;2010;48.194;16.394;2024-01-15T15:24:05;9.77;;;3.83;;
3991;SDS011;2010;48.194;16.394;2024-01-15T15:26:34;3.53;;;2.90;;
3991;SDS011;2010;48.194;16.394;2024-01-15T15:29:06;9.07;;;5.47;;
3991;SDS011;2010;48.194;16.394;2024-01-15T15:31:39;10.83;;;6.50;;
3991;SDS011;2010;48.194;16.394;2024-01-15T15:34:23;11.90;;;5.67;;
3991;SDS011;2010;48.194;16.394;2024-01-15T15:36:52;9.83;;;5.37;;
3991;SDS011;2010;48.194;16.394;2024-01-15T15:39:24;13.73;;;6.60;;
3991;SDS011;2010;48.194;16.394;2024-01-15T15:41:55;11.90;;;5.70;;
3991;SDS011;2010;48.194;16.394;2024-01-15T15:44:32;9.63;;;5.47;;
3991;SDS011;2010;48.194;16.394;2024-01-15T15:47:02;4.10;;;3.60;;